sensor_id;sensor_type;location;lat;lon;timestamp;P1;durP1;ratioP1;P2;durP2;ratioP2
65825;SDS011;52586;-43.152;172.732;2023-05-10T00:01:07;4.72;;;3.15;;
65825;SDS011;52586;-43.152;172.732;2023-05-10T00:03:38;6.70;;;3.25;;
65825;SDS011;52586;-43.152;172.732;2023-05-10T00:06:08;5.60;;;3.30;;
65825;SDS011;52586;-43.152;172.732;2023-05-10T00:08:39;5.72;;;2.97;;
65825;SDS011;52586;-43.152;172.732;2023-05-10T00:11:09;6.07;;;2.90;;
65825;SDS011;52586;-43.152;172.732;2023-05-10T00:13:40;5.30;;;2.65;;
65825;SDS011;52586;-43.152;172.732;2023-05-10T00:16:13;5.70;;;2.90;;
65825;SDS011;52586;-43.152;172.732;2023-05-10T00:18:43;6.63;;;3.13;;
65825;SDS011;52586;-43.152;172.732;2023-05-10T00:21:14;7.07;;;3.22;;
65825;SDS011;52586;-43.152;172.732;2023-05-10T00:23:44;6.78;;;3.17;;
65825;SDS011;52586;-43.152;172.732;2023-05-10T00:26:15;5.35;;;2.90;;
65825;SDS011;52586;-43.152;172.732;2023-05-10T00:28:46;7.22;;;3.45;;
65825;SDS011;52586;-43.152;172.732;2023-05-10T00:31:18;4.60;;;3.03;;
65825;SDS011;52586;-43.152;172.732;2023-05-10T00:33:49;4.88;;;3.15;;
65825;SDS011;52586;-43.152;172.732;2023-05-10T00:36:19;5.18;;;2.97;;
65825;SDS011;52586;-43.152;172.732;2023-05-10T00:38:50;5.03;;;2.85;;
65825;SDS011;52586;-43.152;172.732;2023-05-10T00:41:21;4.65;;;2.83;;
65825;SDS011;52586;-43.152;172.732;2023-05-10T00:43:51;5.25;;;3.03;;
65825;SDS011;52586;-43.152;172.732;2023-05-10T00:46:24;4.65;;;2.72;;
65825;SDS011;52586;-43.152;172.732;2023-05-10T00:48:55;6.07;;;2.85;;
65825;SDS011;52586;-43.152;172.732;2023-05-10T00:51:26;6.60;;;3.55;;
65825;SDS011;52586;-43.152;172.732;2023-05-10T00:53:57;5.63;;;3.20;;
65825;SDS011;52586;-43.152;172.732;2023-05-10T00:56:28;5.05;;;3.03;;
65825;SDS011;52586;-43.152;172.732;2023-05-10T00:58:59;4.43;;;2.90;;
65825;SDS011;52586;-43.152;172.732;2023-05-10T01:01:32;4.22;;;2.88;;
65825;SDS011;52586;-43.152;172.732;2023-05-10T01:04:03;3.80;;;2.92;;
65825;SDS011;52586;-43.152;172.732;2023-05-10T01:06:34;4.97;;;3.03;;
65825;SDS011;52586;-43.152;172.732;2023-05-10T01:09:05;5.32;;;3.13;;
65825;SDS011;52586;-43.152;172.732;2023-05-10T01:11:36;4.40;;;2.50;;
65825;SDS011;52586;-43.152;172.732;2023-05-10T01:14:07;4.13;;;2.58;;
65825;SDS011;52586;-43.152;172.732;2023-05-10T01:16:40;6.90;;;3.10;;
65825;SDS011;52586;-43.152;172.732;2023-05-10T01:19:15;3.65;;;2.50;;
65825;SDS011;52586;-43.152;172.732;2023-05-10T01:21:49;3.92;;;2.58;;
65825;SDS011;52586;-43.152;172.732;2023-05-10T01:24:35;4.35;;;2.75;;
65825;SDS011;52586;-43.152;172.732;2023-05-10T01:30:41;4.38;;;2.60;;
65825;SDS011;52586;-43.152;172.732;2023-05-10T01:33:35;5.25;;;3.17;;
65825;SDS011;52586;-43.152;172.732;2023-05-10T01:36:13;4.28;;;2.78;;
65825;SDS011;52586;-43.152;172.732;2023-05-10T01:38:52;5.82;;;2.35;;
65825;SDS011;52586;-43.152;172.732;2023-05-10T01:41:28;6.03;;;3.17;;
65825;SDS011;52586;-43.152;172.732;2023-05-10T01:44:15;4.05;;;2.50;;
65825;SDS011;52586;-43.152;172.732;2023-05-10T01:46:52;5.68;;;2.65;;
65825;SDS011;52586;-43.152;172.732;2023-05-10T01:49:29;4.30;;;2.83;;
65825;SDS011;52586;-43.152;172.732;2023-05-10T01:52:06;3.35;;;2.45;;
65825;SDS011;52586;-43.152;172.732;2023-05-10T01:54:40;3.78;;;2.60;;
65825;SDS011;52586;-43.152;172.732;2023-05-10T01:57:14;5.38;;;2.85;;
65825;SDS011;52586;-43.152;172.732;2023-05-10T01:59:49;3.92;;;2.55;;
65825;SDS011;52586;-43.152;172.732;2023-05-10T02:02:21;4.28;;;2.95;;
65825;SDS011;52586;-43.152;172.732;2023-05-10T02:04:55;4.90;;;2.50;;
65825;SDS011;52586;-43.152;172.732;2023-05-10T02:07:28;4.90;;;2.75;;
65825;SDS011;52586;-43.152;172.732;2023-05-10T02:09:59;3.50;;;2.10;;
65825;SDS011;52586;-43.152;172.732;2023-05-10T02:12:31;5.00;;;2.70;;
65825;SDS011;52586;-43.152;172.732;2023-05-10T02:15:05;3.20;;;2.38;;
65825;SDS011;52586;-43.152;172.732;2023-05-10T02:17:40;3.08;;;2.20;;
65825;SDS011;52586;-43.152;172.732;2023-05-10T02:20:16;3.38;;;2.30;;
65825;SDS011;52586;-43.152;172.732;2023-05-10T02:22:48;4.25;;;2.40;;
65825;SDS011;52586;-43.152;172.732;2023-05-10T02:25:20;5.70;;;2.90;;
65825;SDS011;52586;-43.152;172.732;2023-05-10T02:27:53;4.57;;;2.30;;
65825;SDS011;52586;-43.152;172.732;2023-05-10T02:30:25;4.07;;;2.55;;
65825;SDS011;52586;-43.152;172.732;2023-05-10T02:32:56;2.67;;;2.10;;
65825;SDS011;52586;-43.152;172.732;2023-05-10T02:35:30;3.80;;;2.40;;
65825;SDS011;52586;-43.152;172.732;2023-05-10T02:38:01;2.83;;;2.30;;
65825;SDS011;52586;-43.152;172.732;2023-05-10T02:40:33;2.75;;;2.20;;
65825;SDS011;52586;-43.152;172.732;2023-05-10T02:43:04;3.10;;;2.00;;
65825;SDS011;52586;-43.152;172.732;2023-05-10T02:45:38;3.58;;;2.03;;
65825;SDS011;52586;-43.152;172.732;2023-05-10T02:48:09;3.22;;;2.08;;
65825;SDS011;52586;-43.152;172.732;2023-05-10T02:50:41;3.40;;;2.10;;
65825;SDS011;52586;-43.152;172.732;2023-05-10T02:53:18;2.58;;;2.00;;
65825;SDS011;52586;-43.152;172.732;2023-05-10T02:55:51;3.53;;;2.13;;
65825;SDS011;52586;-43.152;172.732;2023-05-10T02:58:24;4.30;;;2.20;;
65825;SDS011;52586;-43.152;172.732;2023-05-10T03:00:55;3.28;;;2.08;;
65825;SDS011;52586;-43.152;172.732;2023-05-10T03:03:25;3.03;;;2.20;;
65825;SDS011;52586;-43.152;172.732;2023-05-10T03:05:58;3.35;;;2.00;;
65825;SDS011;52586;-43.152;172.732;2023-05-10T03:08:28;2.45;;;1.80;;
65825;SDS011;52586;-43.152;172.732;2023-05-10T03:11:05;3.15;;;1.90;;
65825;SDS011;52586;-43.152;172.732;2023-05-10T03:13:48;3.25;;;2.20;;
65825;SDS011;52586;-43.152;172.732;2023-05-10T03:16:32;2.25;;;1.80;;
65825;SDS011;52586;-43.152;172.732;2023-05-10T03:19:11;2.88;;;1.90;;
65825;SDS011;52586;-43.152;172.732;2023-05-10T03:21:50;3.65;;;2.20;;
65825;SDS011;52586;-43.152;172.732;2023-05-10T03:24:22;2.72;;;1.77;;
65825;SDS011;52586;-43.152;172.732;2023-05-10T03:26:56;3.35;;;2.03;;
65825;SDS011;52586;-43.152;172.732;2023-05-10T03:29:30;2.95;;;2.05;;
65825;SDS011;52586;-43.152;172.732;2023-05-10T03:32:01;3.00;;;1.92;;
65825;SDS011;52586;-43.152;172.732;2023-05-10T03:34:32;4.63;;;2.55;;
65825;SDS011;52586;-43.152;172.732;2023-05-10T03:37:11;3.35;;;1.88;;
65825;SDS011;52586;-43.152;172.732;2023-05-10T03:39:42;2.90;;;2.10;;
65825;SDS011;52586;-43.152;172.732;2023-05-10T03:42:13;2.42;;;2.03;;
65825;SDS011;52586;-43.152;172.732;2023-05-10T03:44:43;2.40;;;1.98;;
65825;SDS011;52586;-43.152;172.732;2023-05-10T03:47:15;2.65;;;1.50;;
65825;SDS011;52586;-43.152;172.732;2023-05-10T03:49:45;3.65;;;2.15;;
65825;SDS011;52586;-43.152;172.732;2023-05-10T03:52:18;3.72;;;1.83;;
65825;SDS011;52586;-43.152;172.732;2023-05-10T03:54:49;2.67;;;1.83;;
65825;SDS011;52586;-43.152;172.732;2023-05-10T03:57:19;2.85;;;2.00;;
65825;SDS011;52586;-43.152;172.732;2023-05-10T03:59:50;2.60;;;1.90;;
65825;SDS011;52586;-43.152;172.732;2023-05-10T04:02:20;2.50;;;1.80;;
65825;SDS011;52586;-43.152;172.732;2023-05-10T04:04:51;1.85;;;1.52;;
65825;SDS011;52586;-43.152;172.732;2023-05-10T04:07:23;2.75;;;2.08;;
65825;SDS011;52586;-43.152;172.732;2023-05-10T04:09:54;2.03;;;1.52;;
65825;SDS011;52586;-43.152;172.732;2023-05-10T04:12:25;1.67;;;1.58;;
65825;SDS011;52586;-43.152;172.732;2023-05-10T04:14:55;2.55;;;1.83;;
65825;SDS011;52586;-43.152;172.732;2023-05-10T04:17:26;2.83;;;1.90;;
65825;SDS011;52586;-43.152;172.732;2023-05-10T04:19:57;3.03;;;1.90;;
65825;SDS011;52586;-43.152;172.732;2023-05-10T04:22:29;1.98;;;1.73;;
65825;SDS011;52586;-43.152;172.732;2023-05-10T04:25:01;2.40;;;1.60;;
65825;SDS011;52586;-43.152;172.732;2023-05-10T04:27:32;2.88;;;1.58;;
65825;SDS011;52586;-43.152;172.732;2023-05-10T04:30:03;1.63;;;1.52;;
65825;SDS011;52586;-43.152;172.732;2023-05-10T04:32:34;1.85;;;1.50;;
65825;SDS011;52586;-43.152;172.732;2023-05-10T04:35:05;2.55;;;1.70;;
65825;SDS011;52586;-43.152;172.732;2023-05-10T04:37:38;2.05;;;1.80;;
65825;SDS011;52586;-43.152;172.732;2023-05-10T04:40:09;2.40;;;1.67;;
65825;SDS011;52586;-43.152;172.732;2023-05-10T04:42:40;2.53;;;2.03;;
65825;SDS011;52586;-43.152;172.732;2023-05-10T04:45:12;2.75;;;1.65;;
65825;SDS011;52586;-43.152;172.732;2023-05-10T04:47:43;3.33;;;1.80;;
65825;SDS011;52586;-43.152;172.732;2023-05-10T04:50:13;2.95;;;1.90;;
65825;SDS011;52586;-43.152;172.732;2023-05-10T04:52:46;2.65;;;1.58;;
65825;SDS011;52586;-43.152;172.732;2023-05-10T04:55:17;1.85;;;1.65;;
65825;SDS011;52586;-43.152;172.732;2023-05-10T04:57:47;2.05;;;1.70;;
65825;SDS011;52586;-43.152;172.732;2023-05-10T05:00:18;2.22;;;1.80;;
65825;SDS011;52586;-43.152;172.732;2023-05-10T05:02:49;2.63;;;1.83;;
65825;SDS011;52586;-43.152;172.732;2023-05-10T05:05:20;1.98;;;1.50;;
65825;SDS011;52586;-43.152;172.732;2023-05-10T05:07:52;1.98;;;1.67;;
65825;SDS011;52586;-43.152;172.732;2023-05-10T05:10:23;3.40;;;1.92;;
65825;SDS011;52586;-43.152;172.732;2023-05-10T05:12:53;2.33;;;1.70;;
65825;SDS011;52586;-43.152;172.732;2023-05-10T05:15:24;2.70;;;1.98;;
65825;SDS011;52586;-43.152;172.732;2023-05-10T05:17:56;2.03;;;1.70;;
65825;SDS011;52586;-43.152;172.732;2023-05-10T05:20:27;2.33;;;1.90;;
65825;SDS011;52586;-43.152;172.732;2023-05-10T05:23:02;2.65;;;2.10;;
65825;SDS011;52586;-43.152;172.732;2023-05-10T05:25:32;2.42;;;1.85;;
65825;SDS011;52586;-43.152;172.732;2023-05-10T05:28:03;2.80;;;2.13;;
65825;SDS011;52586;-43.152;172.732;2023-05-10T05:30:34;2.53;;;2.00;;
65825;SDS011;52586;-43.152;172.732;2023-05-10T05:33:05;2.28;;;2.03;;
65825;SDS011;52586;-43.152;172.732;2023-05-10T05:35:35;2.88;;;2.42;;
65825;SDS011;52586;-43.152;172.732;2023-05-10T05:38:08;2.65;;;2.15;;
65825;SDS011;52586;-43.152;172.732;2023-05-10T05:40:39;2.58;;;2.05;;
65825;SDS011;52586;-43.152;172.732;2023-05-10T05:43:09;3.70;;;2.35;;
65825;SDS011;52586;-43.152;172.732;2023-05-10T05:45:40;2.60;;;2.33;;
65825;SDS011;52586;-43.152;172.732;2023-05-10T05:48:10;3.13;;;2.65;;
65825;SDS011;52586;-43.152;172.732;2023-05-10T05:50:41;3.42;;;2.97;;
65825;SDS011;52586;-43.152;172.732;2023-05-10T05:53:14;3.67;;;2.90;;
65825;SDS011;52586;-43.152;172.732;2023-05-10T05:55:51;3.25;;;2.85;;
65825;SDS011;52586;-43.152;172.732;2023-05-10T05:58:22;3.20;;;2.90;;
65825;SDS011;52586;-43.152;172.732;2023-05-10T06:00:53;4.07;;;3.55;;
65825;SDS011;52586;-43.152;172.732;2023-05-10T06:03:23;3.35;;;2.95;;
65825;SDS011;52586;-43.152;172.732;2023-05-10T06:05:54;3.40;;;3.10;;
65825;SDS011;52586;-43.152;172.732;2023-05-10T06:08:26;4.25;;;3.10;;
65825;SDS011;52586;-43.152;172.732;2023-05-10T06:10:57;3.60;;;3.30;;
65825;SDS011;52586;-43.152;172.732;2023-05-10T06:13:28;4.15;;;3.17;;
65825;SDS011;52586;-43.152;172.732;2023-05-10T06:15:59;4.03;;;3.40;;
65825;SDS011;52586;-43.152;172.732;2023-05-10T06:18:30;4.20;;;3.45;;
65825;SDS011;52586;-43.152;172.732;2023-05-10T06:21:01;4.00;;;3.60;;
65825;SDS011;52586;-43.152;172.732;2023-05-10T06:23:33;4.32;;;3.92;;
65825;SDS011;52586;-43.152;172.732;2023-05-10T06:26:04;5.40;;;3.83;;
65825;SDS011;52586;-43.152;172.732;2023-05-10T06:28:35;5.25;;;3.80;;
65825;SDS011;52586;-43.152;172.732;2023-05-10T06:31:06;6.03;;;3.85;;
65825;SDS011;52586;-43.152;172.732;2023-05-10T06:33:37;4.50;;;3.80;;
65825;SDS011;52586;-43.152;172.732;2023-05-10T06:36:08;4.65;;;3.90;;
65825;SDS011;52586;-43.152;172.732;2023-05-10T06:38:41;5.63;;;4.35;;
65825;SDS011;52586;-43.152;172.732;2023-05-10T06:41:11;5.20;;;3.92;;
65825;SDS011;52586;-43.152;172.732;2023-05-10T06:43:42;5.55;;;4.32;;
65825;SDS011;52586;-43.152;172.732;2023-05-10T06:46:13;4.78;;;4.13;;
65825;SDS011;52586;-43.152;172.732;2023-05-10T06:48:43;5.18;;;4.13;;
65825;SDS011;52586;-43.152;172.732;2023-05-10T06:51:14;4.10;;;3.70;;
65825;SDS011;52586;-43.152;172.732;2023-05-10T06:53:47;5.20;;;3.85;;
65825;SDS011;52586;-43.152;172.732;2023-05-10T06:56:17;4.95;;;3.40;;
65825;SDS011;52586;-43.152;172.732;2023-05-10T06:58:48;4.65;;;3.75;;
65825;SDS011;52586;-43.152;172.732;2023-05-10T07:01:19;4.60;;;3.45;;
65825;SDS011;52586;-43.152;172.732;2023-05-10T07:03:50;5.30;;;3.58;;
65825;SDS011;52586;-43.152;172.732;2023-05-10T07:06:20;5.60;;;3.60;;
65825;SDS011;52586;-43.152;172.732;2023-05-10T07:08:53;6.03;;;3.92;;
65825;SDS011;52586;-43.152;172.732;2023-05-10T07:11:23;5.18;;;4.05;;
65825;SDS011;52586;-43.152;172.732;2023-05-10T07:13:54;4.20;;;3.72;;
65825;SDS011;52586;-43.152;172.732;2023-05-10T07:16:25;3.88;;;3.08;;
65825;SDS011;52586;-43.152;172.732;2023-05-10T07:18:56;4.95;;;3.80;;
65825;SDS011;52586;-43.152;172.732;2023-05-10T07:21:27;3.88;;;2.80;;
65825;SDS011;52586;-43.152;172.732;2023-05-10T07:23:59;4.78;;;3.47;;
65825;SDS011;52586;-43.152;172.732;2023-05-10T07:26:30;4.28;;;3.30;;
65825;SDS011;52586;-43.152;172.732;2023-05-10T07:29:00;5.00;;;3.20;;
65825;SDS011;52586;-43.152;172.732;2023-05-10T07:31:31;4.15;;;3.00;;
65825;SDS011;52586;-43.152;172.732;2023-05-10T07:34:01;4.00;;;3.13;;
65825;SDS011;52586;-43.152;172.732;2023-05-10T07:36:32;3.75;;;3.17;;
65825;SDS011;52586;-43.152;172.732;2023-05-10T07:39:05;4.00;;;3.28;;
65825;SDS011;52586;-43.152;172.732;2023-05-10T07:41:36;5.00;;;3.47;;
65825;SDS011;52586;-43.152;172.732;2023-05-10T07:44:06;4.03;;;3.00;;
65825;SDS011;52586;-43.152;172.732;2023-05-10T07:46:37;3.95;;;3.40;;
65825;SDS011;52586;-43.152;172.732;2023-05-10T07:49:08;4.55;;;3.20;;
65825;SDS011;52586;-43.152;172.732;2023-05-10T07:51:38;4.25;;;3.17;;
65825;SDS011;52586;-43.152;172.732;2023-05-10T07:54:11;5.07;;;3.28;;
65825;SDS011;52586;-43.152;172.732;2023-05-10T07:56:42;3.53;;;3.00;;
65825;SDS011;52586;-43.152;172.732;2023-05-10T07:59:15;5.05;;;3.30;;
65825;SDS011;52586;-43.152;172.732;2023-05-10T08:01:46;4.45;;;3.10;;
65825;SDS011;52586;-43.152;172.732;2023-05-10T08:04:16;4.53;;;3.47;;
65825;SDS011;52586;-43.152;172.732;2023-05-10T08:06:47;8.50;;;5.03;;
65825;SDS011;52586;-43.152;172.732;2023-05-10T08:09:20;6.28;;;3.97;;
65825;SDS011;52586;-43.152;172.732;2023-05-10T08:11:50;8.38;;;3.90;;
65825;SDS011;52586;-43.152;172.732;2023-05-10T08:14:21;9.18;;;4.20;;
65825;SDS011;52586;-43.152;172.732;2023-05-10T08:16:51;7.03;;;4.07;;
65825;SDS011;52586;-43.152;172.732;2023-05-10T08:19:22;7.45;;;4.22;;
65825;SDS011;52586;-43.152;172.732;2023-05-10T08:21:53;8.77;;;4.10;;
65825;SDS011;52586;-43.152;172.732;2023-05-10T08:24:25;7.63;;;4.18;;
65825;SDS011;52586;-43.152;172.732;2023-05-10T08:26:56;11.00;;;4.80;;
65825;SDS011;52586;-43.152;172.732;2023-05-10T08:29:26;5.88;;;3.63;;
65825;SDS011;52586;-43.152;172.732;2023-05-10T08:31:57;6.68;;;4.03;;
65825;SDS011;52586;-43.152;172.732;2023-05-10T08:34:28;7.95;;;3.95;;
65825;SDS011;52586;-43.152;172.732;2023-05-10T08:36:59;6.68;;;4.15;;
65825;SDS011;52586;-43.152;172.732;2023-05-10T08:39:33;8.00;;;4.10;;
65825;SDS011;52586;-43.152;172.732;2023-05-10T08:42:04;6.95;;;4.10;;
65825;SDS011;52586;-43.152;172.732;2023-05-10T08:44:36;7.75;;;3.80;;
65825;SDS011;52586;-43.152;172.732;2023-05-10T08:47:07;6.43;;;4.10;;
65825;SDS011;52586;-43.152;172.732;2023-05-10T08:49:39;5.70;;;4.20;;
65825;SDS011;52586;-43.152;172.732;2023-05-10T08:52:10;6.45;;;4.30;;
65825;SDS011;52586;-43.152;172.732;2023-05-10T08:54:45;6.22;;;3.65;;
65825;SDS011;52586;-43.152;172.732;2023-05-10T08:57:17;6.68;;;3.72;;
65825;SDS011;52586;-43.152;172.732;2023-05-10T08:59:49;5.53;;;3.33;;
65825;SDS011;52586;-43.152;172.732;2023-05-10T09:02:19;8.40;;;4.00;;
65825;SDS011;52586;-43.152;172.732;2023-05-10T09:04:52;6.25;;;3.65;;
65825;SDS011;52586;-43.152;172.732;2023-05-10T09:07:22;6.32;;;3.65;;
65825;SDS011;52586;-43.152;172.732;2023-05-10T09:09:55;5.45;;;3.65;;
65825;SDS011;52586;-43.152;172.732;2023-05-10T09:12:27;5.93;;;3.55;;
65825;SDS011;52586;-43.152;172.732;2023-05-10T09:14:58;4.85;;;3.10;;
65825;SDS011;52586;-43.152;172.732;2023-05-10T09:17:30;5.28;;;3.60;;
65825;SDS011;52586;-43.152;172.732;2023-05-10T09:20:02;5.25;;;3.45;;
65825;SDS011;52586;-43.152;172.732;2023-05-10T09:22:33;5.30;;;3.40;;
65825;SDS011;52586;-43.152;172.732;2023-05-10T09:25:15;5.07;;;3.53;;
65825;SDS011;52586;-43.152;172.732;2023-05-10T09:27:46;6.97;;;3.60;;
65825;SDS011;52586;-43.152;172.732;2023-05-10T09:30:18;7.05;;;3.70;;
65825;SDS011;52586;-43.152;172.732;2023-05-10T09:32:54;6.50;;;3.47;;
65825;SDS011;52586;-43.152;172.732;2023-05-10T09:35:26;5.55;;;3.20;;
65825;SDS011;52586;-43.152;172.732;2023-05-10T09:37:58;7.30;;;3.50;;
65825;SDS011;52586;-43.152;172.732;2023-05-10T09:40:33;4.57;;;3.20;;
65825;SDS011;52586;-43.152;172.732;2023-05-10T09:43:04;5.15;;;3.17;;
65825;SDS011;52586;-43.152;172.732;2023-05-10T09:45:36;6.07;;;3.15;;
65825;SDS011;52586;-43.152;172.732;2023-05-10T09:48:09;6.07;;;3.63;;
65825;SDS011;52586;-43.152;172.732;2023-05-10T09:50:40;6.78;;;3.25;;
65825;SDS011;52586;-43.152;172.732;2023-05-10T09:53:12;6.80;;;2.90;;
65825;SDS011;52586;-43.152;172.732;2023-05-10T09:55:46;5.03;;;3.20;;
65825;SDS011;52586;-43.152;172.732;2023-05-10T09:58:17;5.20;;;3.20;;
65825;SDS011;52586;-43.152;172.732;2023-05-10T10:00:48;5.00;;;2.85;;
65825;SDS011;52586;-43.152;172.732;2023-05-10T10:03:19;6.55;;;3.50;;
65825;SDS011;52586;-43.152;172.732;2023-05-10T10:05:50;5.70;;;3.55;;
65825;SDS011;52586;-43.152;172.732;2023-05-10T10:08:22;5.82;;;3.17;;
65825;SDS011;52586;-43.152;172.732;2023-05-10T10:10:54;5.05;;;3.38;;
65825;SDS011;52586;-43.152;172.732;2023-05-10T10:13:25;5.05;;;3.50;;
65825;SDS011;52586;-43.152;172.732;2023-05-10T10:15:56;6.07;;;3.42;;
65825;SDS011;52586;-43.152;172.732;2023-05-10T10:18:26;6.28;;;3.40;;
65825;SDS011;52586;-43.152;172.732;2023-05-10T10:20:59;6.53;;;3.28;;
65825;SDS011;52586;-43.152;172.732;2023-05-10T10:23:30;6.05;;;3.10;;
65825;SDS011;52586;-43.152;172.732;2023-05-10T10:26:03;8.35;;;3.33;;
65825;SDS011;52586;-43.152;172.732;2023-05-10T10:28:46;4.85;;;3.38;;
65825;SDS011;52586;-43.152;172.732;2023-05-10T10:31:28;4.45;;;3.00;;
65825;SDS011;52586;-43.152;172.732;2023-05-10T10:34:05;4.70;;;3.22;;
65825;SDS011;52586;-43.152;172.732;2023-05-10T10:36:42;5.32;;;2.83;;
65825;SDS011;52586;-43.152;172.732;2023-05-10T10:39:14;4.22;;;2.65;;
65825;SDS011;52586;-43.152;172.732;2023-05-10T10:41:51;5.13;;;3.25;;
65825;SDS011;52586;-43.152;172.732;2023-05-10T10:44:23;4.53;;;3.15;;
65825;SDS011;52586;-43.152;172.732;2023-05-10T10:47:22;6.10;;;3.10;;
65825;SDS011;52586;-43.152;172.732;2023-05-10T10:50:05;5.32;;;3.38;;
65825;SDS011;52586;-43.152;172.732;2023-05-10T10:52:39;5.63;;;3.47;;
65825;SDS011;52586;-43.152;172.732;2023-05-10T10:55:10;5.50;;;3.08;;
65825;SDS011;52586;-43.152;172.732;2023-05-10T10:57:45;6.85;;;3.08;;
65825;SDS011;52586;-43.152;172.732;2023-05-10T11:00:26;4.78;;;3.15;;
65825;SDS011;52586;-43.152;172.732;2023-05-10T11:02:58;5.72;;;2.90;;
65825;SDS011;52586;-43.152;172.732;2023-05-10T11:05:36;4.22;;;3.05;;
65825;SDS011;52586;-43.152;172.732;2023-05-10T11:08:09;3.95;;;2.92;;
65825;SDS011;52586;-43.152;172.732;2023-05-10T11:10:48;6.22;;;3.20;;
65825;SDS011;52586;-43.152;172.732;2023-05-10T11:13:32;5.63;;;3.30;;
65825;SDS011;52586;-43.152;172.732;2023-05-10T11:16:13;4.55;;;3.05;;
65825;SDS011;52586;-43.152;172.732;2023-05-10T11:18:56;10.80;;;2.95;;
65825;SDS011;52586;-43.152;172.732;2023-05-10T11:21:30;4.88;;;2.85;;
65825;SDS011;52586;-43.152;172.732;2023-05-10T11:24:01;6.03;;;2.92;;
65825;SDS011;52586;-43.152;172.732;2023-05-10T11:26:41;5.38;;;2.97;;
65825;SDS011;52586;-43.152;172.732;2023-05-10T11:29:14;4.97;;;2.92;;
65825;SDS011;52586;-43.152;172.732;2023-05-10T11:31:45;5.38;;;3.35;;
65825;SDS011;52586;-43.152;172.732;2023-05-10T11:34:23;3.72;;;2.78;;
65825;SDS011;52586;-43.152;172.732;2023-05-10T11:36:54;6.35;;;3.28;;
65825;SDS011;52586;-43.152;172.732;2023-05-10T11:39:29;5.88;;;2.92;;
65825;SDS011;52586;-43.152;172.732;2023-05-10T11:42:00;5.32;;;3.15;;
65825;SDS011;52586;-43.152;172.732;2023-05-10T11:44:33;7.28;;;3.30;;
65825;SDS011;52586;-43.152;172.732;2023-05-10T11:47:04;5.55;;;3.00;;
65825;SDS011;52586;-43.152;172.732;2023-05-10T11:49:35;5.72;;;3.30;;
65825;SDS011;52586;-43.152;172.732;2023-05-10T11:52:06;5.93;;;2.55;;
65825;SDS011;52586;-43.152;172.732;2023-05-10T11:54:37;5.90;;;3.08;;
65825;SDS011;52586;-43.152;172.732;2023-05-10T11:57:14;4.78;;;2.92;;
65825;SDS011;52586;-43.152;172.732;2023-05-10T11:59:49;3.92;;;2.97;;
65825;SDS011;52586;-43.152;172.732;2023-05-10T12:02:23;5.15;;;3.08;;
65825;SDS011;52586;-43.152;172.732;2023-05-10T12:04:54;5.68;;;2.80;;
65825;SDS011;52586;-43.152;172.732;2023-05-10T12:07:26;4.50;;;2.53;;
65825;SDS011;52586;-43.152;172.732;2023-05-10T12:10:04;4.55;;;2.83;;
65825;SDS011;52586;-43.152;172.732;2023-05-10T12:12:37;3.30;;;2.75;;
65825;SDS011;52586;-43.152;172.732;2023-05-10T12:15:17;5.68;;;2.70;;
65825;SDS011;52586;-43.152;172.732;2023-05-10T12:17:49;4.72;;;2.50;;
65825;SDS011;52586;-43.152;172.732;2023-05-10T12:20:20;3.97;;;2.60;;
65825;SDS011;52586;-43.152;172.732;2023-05-10T12:22:56;4.05;;;2.67;;
65825;SDS011;52586;-43.152;172.732;2023-05-10T12:25:30;4.55;;;2.88;;
65825;SDS011;52586;-43.152;172.732;2023-05-10T12:28:03;5.35;;;2.42;;
65825;SDS011;52586;-43.152;172.732;2023-05-10T12:30:36;4.63;;;2.58;;
65825;SDS011;52586;-43.152;172.732;2023-05-10T12:33:07;5.53;;;2.70;;
65825;SDS011;52586;-43.152;172.732;2023-05-10T12:35:45;5.93;;;2.67;;
65825;SDS011;52586;-43.152;172.732;2023-05-10T12:38:24;3.67;;;2.50;;
65825;SDS011;52586;-43.152;172.732;2023-05-10T12:40:57;4.68;;;2.80;;
65825;SDS011;52586;-43.152;172.732;2023-05-10T12:43:28;3.45;;;2.28;;
65825;SDS011;52586;-43.152;172.732;2023-05-10T12:46:03;4.40;;;2.60;;
65825;SDS011;52586;-43.152;172.732;2023-05-10T12:48:35;5.40;;;2.80;;
65825;SDS011;52586;-43.152;172.732;2023-05-10T12:51:06;4.43;;;2.42;;
65825;SDS011;52586;-43.152;172.732;2023-05-10T12:53:39;4.53;;;2.50;;
65825;SDS011;52586;-43.152;172.732;2023-05-10T12:56:11;2.70;;;2.20;;
65825;SDS011;52586;-43.152;172.732;2023-05-10T12:58:42;5.57;;;3.00;;
65825;SDS011;52586;-43.152;172.732;2023-05-10T13:01:16;4.03;;;2.38;;
65825;SDS011;52586;-43.152;172.732;2023-05-10T13:03:46;4.22;;;2.72;;
65825;SDS011;52586;-43.152;172.732;2023-05-10T13:06:17;4.03;;;2.28;;
65825;SDS011;52586;-43.152;172.732;2023-05-10T13:08:47;3.67;;;2.22;;
65825;SDS011;52586;-43.152;172.732;2023-05-10T13:11:18;3.42;;;2.40;;
65825;SDS011;52586;-43.152;172.732;2023-05-10T13:13:49;3.15;;;1.90;;
65825;SDS011;52586;-43.152;172.732;2023-05-10T13:16:22;4.43;;;2.65;;
65825;SDS011;52586;-43.152;172.732;2023-05-10T13:18:52;4.63;;;2.20;;
65825;SDS011;52586;-43.152;172.732;2023-05-10T13:21:23;3.05;;;1.92;;
65825;SDS011;52586;-43.152;172.732;2023-05-10T13:23:54;4.15;;;2.25;;
65825;SDS011;52586;-43.152;172.732;2023-05-10T13:26:24;2.88;;;1.98;;
65825;SDS011;52586;-43.152;172.732;2023-05-10T13:28:55;3.88;;;2.40;;
65825;SDS011;52586;-43.152;172.732;2023-05-10T13:31:27;3.35;;;1.88;;
65825;SDS011;52586;-43.152;172.732;2023-05-10T13:33:58;2.95;;;2.40;;
65825;SDS011;52586;-43.152;172.732;2023-05-10T13:36:29;3.00;;;2.00;;
65825;SDS011;52586;-43.152;172.732;2023-05-10T13:38:59;4.55;;;2.20;;
65825;SDS011;52586;-43.152;172.732;2023-05-10T13:41:31;3.35;;;2.20;;
65825;SDS011;52586;-43.152;172.732;2023-05-10T13:44:02;3.15;;;1.88;;
65825;SDS011;52586;-43.152;172.732;2023-05-10T13:46:35;3.38;;;2.00;;
65825;SDS011;52586;-43.152;172.732;2023-05-10T13:49:06;3.35;;;2.20;;
65825;SDS011;52586;-43.152;172.732;2023-05-10T13:51:38;2.30;;;1.92;;
65825;SDS011;52586;-43.152;172.732;2023-05-10T13:54:08;2.78;;;1.92;;
65825;SDS011;52586;-43.152;172.732;2023-05-10T13:56:39;3.60;;;1.65;;
65825;SDS011;52586;-43.152;172.732;2023-05-10T13:59:11;2.58;;;1.50;;
65825;SDS011;52586;-43.152;172.732;2023-05-10T14:01:44;5.28;;;2.28;;
65825;SDS011;52586;-43.152;172.732;2023-05-10T14:04:14;3.95;;;2.10;;
65825;SDS011;52586;-43.152;172.732;2023-05-10T14:06:45;3.13;;;1.85;;
65825;SDS011;52586;-43.152;172.732;2023-05-10T14:09:16;3.15;;;2.08;;
65825;SDS011;52586;-43.152;172.732;2023-05-10T14:11:46;3.40;;;1.92;;
65825;SDS011;52586;-43.152;172.732;2023-05-10T14:14:17;2.92;;;2.00;;
65825;SDS011;52586;-43.152;172.732;2023-05-10T14:16:49;2.80;;;1.73;;
65825;SDS011;52586;-43.152;172.732;2023-05-10T14:19:20;2.05;;;1.73;;
65825;SDS011;52586;-43.152;172.732;2023-05-10T14:21:51;2.72;;;1.60;;
65825;SDS011;52586;-43.152;172.732;2023-05-10T14:24:21;2.05;;;1.40;;
65825;SDS011;52586;-43.152;172.732;2023-05-10T14:26:52;3.00;;;1.60;;
65825;SDS011;52586;-43.152;172.732;2023-05-10T14:29:23;2.05;;;1.50;;
65825;SDS011;52586;-43.152;172.732;2023-05-10T14:31:55;1.80;;;1.55;;
65825;SDS011;52586;-43.152;172.732;2023-05-10T14:34:26;2.47;;;1.60;;
65825;SDS011;52586;-43.152;172.732;2023-05-10T14:36:56;3.45;;;1.73;;
65825;SDS011;52586;-43.152;172.732;2023-05-10T14:39:27;3.00;;;1.70;;
65825;SDS011;52586;-43.152;172.732;2023-05-10T14:41:58;1.70;;;1.40;;